sensor_id;sensor_type;location;lat;lon;timestamp;temperature;humidity
831;DHT22;397;50.564;7.272;2023-08-21T00:02:01;21.00;99.90
831;DHT22;397;50.564;7.272;2023-08-21T00:04:29;21.10;99.90
831;DHT22;397;50.564;7.272;2023-08-21T00:06:56;21.10;99.90
831;DHT22;397;50.564;7.272;2023-08-21T00:09:24;21.00;99.90
831;DHT22;397;50.564;7.272;2023-08-21T00:11:51;21.10;99.90
831;DHT22;397;50.564;7.272;2023-08-21T00:14:19;21.10;99.90
831;DHT22;397;50.564;7.272;2023-08-21T00:16:46;21.10;99.90
831;DHT22;397;50.564;7.272;2023-08-21T00:19:14;21.00;99.90
831;DHT22;397;50.564;7.272;2023-08-21T00:21:41;21.20;99.90
831;DHT22;397;50.564;7.272;2023-08-21T00:24:09;21.20;99.90
831;DHT22;397;50.564;7.272;2023-08-21T00:26:36;21.20;99.90
831;DHT22;397;50.564;7.272;2023-08-21T00:29:04;21.20;99.90
831;DHT22;397;50.564;7.272;2023-08-21T00:31:31;21.20;99.90
831;DHT22;397;50.564;7.272;2023-08-21T00:33:59;21.20;99.90
831;DHT22;397;50.564;7.272;2023-08-21T00:36:26;21.20;99.90
831;DHT22;397;50.564;7.272;2023-08-21T00:38:54;21.20;99.90
831;DHT22;397;50.564;7.272;2023-08-21T00:41:21;21.20;99.90
831;DHT22;397;50.564;7.272;2023-08-21T00:43:49;21.20;99.90
831;DHT22;397;50.564;7.272;2023-08-21T00:46:16;21.20;99.90
831;DHT22;397;50.564;7.272;2023-08-21T00:48:44;21.00;99.90
831;DHT22;397;50.564;7.272;2023-08-21T00:51:14;20.90;99.90
831;DHT22;397;50.564;7.272;2023-08-21T00:53:43;20.90;99.90
831;DHT22;397;50.564;7.272;2023-08-21T00:56:11;20.90;99.90
831;DHT22;397;50.564;7.272;2023-08-21T00:58:39;20.90;99.90
831;DHT22;397;50.564;7.272;2023-08-21T01:01:07;21.00;99.90
831;DHT22;397;50.564;7.272;2023-08-21T01:03:34;21.00;99.90
831;DHT22;397;50.564;7.272;2023-08-21T01:06:02;20.90;99.90
831;DHT22;397;50.564;7.272;2023-08-21T01:08:42;20.90;99.90
831;DHT22;397;50.564;7.272;2023-08-21T01:11:18;21.00;99.90
831;DHT22;397;50.564;7.272;2023-08-21T01:14:05;20.90;99.90
831;DHT22;397;50.564;7.272;2023-08-21T01:16:31;20.90;99.90
831;DHT22;397;50.564;7.272;2023-08-21T01:19:01;20.80;99.90
831;DHT22;397;50.564;7.272;2023-08-21T01:21:30;20.80;99.90
831;DHT22;397;50.564;7.272;2023-08-21T01:23:58;20.70;99.90
831;DHT22;397;50.564;7.272;2023-08-21T01:26:26;20.60;99.90
831;DHT22;397;50.564;7.272;2023-08-21T01:28:53;20.40;99.90
831;DHT22;397;50.564;7.272;2023-08-21T01:31:30;20.20;99.90
831;DHT22;397;50.564;7.272;2023-08-21T01:34:00;20.20;99.90
831;DHT22;397;50.564;7.272;2023-08-21T01:36:29;20.20;99.90
831;DHT22;397;50.564;7.272;2023-08-21T01:38:57;20.20;99.90
831;DHT22;397;50.564;7.272;2023-08-21T01:41:24;20.10;99.90
831;DHT22;397;50.564;7.272;2023-08-21T01:43:52;20.20;99.90
831;DHT22;397;50.564;7.272;2023-08-21T01:46:19;20.30;99.90
831;DHT22;397;50.564;7.272;2023-08-21T01:48:47;20.40;99.90
831;DHT22;397;50.564;7.272;2023-08-21T01:51:15;20.50;99.90
831;DHT22;397;50.564;7.272;2023-08-21T01:53:42;20.50;99.90
831;DHT22;397;50.564;7.272;2023-08-21T01:56:10;20.50;99.90
831;DHT22;397;50.564;7.272;2023-08-21T01:58:37;20.50;99.90
831;DHT22;397;50.564;7.272;2023-08-21T02:01:04;20.50;99.90
831;DHT22;397;50.564;7.272;2023-08-21T02:03:32;20.50;99.90
831;DHT22;397;50.564;7.272;2023-08-21T02:06:00;20.50;99.90
831;DHT22;397;50.564;7.272;2023-08-21T02:08:31;20.30;99.90
831;DHT22;397;50.564;7.272;2023-08-21T02:11:02;20.40;99.90
831;DHT22;397;50.564;7.272;2023-08-21T02:13:29;20.50;99.90
831;DHT22;397;50.564;7.272;2023-08-21T02:15:58;20.40;99.90
831;DHT22;397;50.564;7.272;2023-08-21T02:18:26;20.40;99.90
831;DHT22;397;50.564;7.272;2023-08-21T02:20:53;20.50;99.90
831;DHT22;397;50.564;7.272;2023-08-21T02:23:21;20.40;99.90
831;DHT22;397;50.564;7.272;2023-08-21T02:25:50;20.00;99.90
831;DHT22;397;50.564;7.272;2023-08-21T02:28:18;19.80;99.90
831;DHT22;397;50.564;7.272;2023-08-21T02:30:45;19.90;99.90
831;DHT22;397;50.564;7.272;2023-08-21T02:33:13;20.00;99.90
831;DHT22;397;50.564;7.272;2023-08-21T02:35:41;20.10;99.90
831;DHT22;397;50.564;7.272;2023-08-21T02:38:08;20.20;99.90
831;DHT22;397;50.564;7.272;2023-08-21T02:40:36;20.30;99.90
831;DHT22;397;50.564;7.272;2023-08-21T02:43:03;20.30;99.90
831;DHT22;397;50.564;7.272;2023-08-21T02:45:31;20.40;99.90
831;DHT22;397;50.564;7.272;2023-08-21T02:47:59;20.30;99.90
831;DHT22;397;50.564;7.272;2023-08-21T02:50:26;20.20;99.90
831;DHT22;397;50.564;7.272;2023-08-21T02:52:54;20.20;99.90
831;DHT22;397;50.564;7.272;2023-08-21T02:55:22;20.30;99.90
831;DHT22;397;50.564;7.272;2023-08-21T02:57:50;20.30;99.90
831;DHT22;397;50.564;7.272;2023-08-21T03:00:17;20.40;99.90
831;DHT22;397;50.564;7.272;2023-08-21T03:02:45;20.30;99.90
831;DHT22;397;50.564;7.272;2023-08-21T03:05:12;20.30;99.90
831;DHT22;397;50.564;7.272;2023-08-21T03:07:40;20.30;99.90
831;DHT22;397;50.564;7.272;2023-08-21T03:10:08;20.30;99.90
831;DHT22;397;50.564;7.272;2023-08-21T03:12:36;20.30;99.90
831;DHT22;397;50.564;7.272;2023-08-21T03:15:04;20.20;99.90
831;DHT22;397;50.564;7.272;2023-08-21T03:17:32;20.30;99.90
831;DHT22;397;50.564;7.272;2023-08-21T03:20:00;20.40;99.90
831;DHT22;397;50.564;7.272;2023-08-21T03:22:27;20.30;99.90
831;DHT22;397;50.564;7.272;2023-08-21T03:24:55;20.40;99.90
831;DHT22;397;50.564;7.272;2023-08-21T03:27:24;20.40;99.90
831;DHT22;397;50.564;7.272;2023-08-21T03:29:51;20.40;99.90
831;DHT22;397;50.564;7.272;2023-08-21T03:32:19;20.30;99.90
831;DHT22;397;50.564;7.272;2023-08-21T03:34:46;20.30;99.90
831;DHT22;397;50.564;7.272;2023-08-21T03:37:14;20.30;99.90
831;DHT22;397;50.564;7.272;2023-08-21T03:39:42;20.30;99.90
831;DHT22;397;50.564;7.272;2023-08-21T03:42:10;20.20;99.90
831;DHT22;397;50.564;7.272;2023-08-21T03:44:39;20.20;99.90
831;DHT22;397;50.564;7.272;2023-08-21T03:47:07;20.20;99.90
831;DHT22;397;50.564;7.272;2023-08-21T03:49:34;20.20;99.90
831;DHT22;397;50.564;7.272;2023-08-21T03:52:01;20.20;99.90
831;DHT22;397;50.564;7.272;2023-08-21T03:54:29;20.20;99.90
831;DHT22;397;50.564;7.272;2023-08-21T03:56:56;20.30;99.90
831;DHT22;397;50.564;7.272;2023-08-21T03:59:24;20.30;99.90
831;DHT22;397;50.564;7.272;2023-08-21T04:01:54;20.30;99.90
831;DHT22;397;50.564;7.272;2023-08-21T04:04:21;20.10;99.90
831;DHT22;397;50.564;7.272;2023-08-21T04:06:49;20.10;99.90
831;DHT22;397;50.564;7.272;2023-08-21T04:09:16;20.10;99.90
831;DHT22;397;50.564;7.272;2023-08-21T04:11:44;20.20;99.90
831;DHT22;397;50.564;7.272;2023-08-21T04:14:11;20.20;99.90
831;DHT22;397;50.564;7.272;2023-08-21T04:16:39;20.20;99.90
831;DHT22;397;50.564;7.272;2023-08-21T04:19:06;20.20;99.90
831;DHT22;397;50.564;7.272;2023-08-21T04:21:34;20.00;99.90
831;DHT22;397;50.564;7.272;2023-08-21T04:24:01;19.80;99.90
831;DHT22;397;50.564;7.272;2023-08-21T04:26:29;19.90;99.90
831;DHT22;397;50.564;7.272;2023-08-21T04:28:57;19.90;99.90
831;DHT22;397;50.564;7.272;2023-08-21T04:31:24;19.80;99.90
831;DHT22;397;50.564;7.272;2023-08-21T04:33:52;19.80;99.90
831;DHT22;397;50.564;7.272;2023-08-21T04:36:19;19.80;99.90
831;DHT22;397;50.564;7.272;2023-08-21T04:38:47;19.70;99.90
831;DHT22;397;50.564;7.272;2023-08-21T04:41:14;19.60;99.90
831;DHT22;397;50.564;7.272;2023-08-21T04:43:42;19.60;99.90
831;DHT22;397;50.564;7.272;2023-08-21T04:46:09;19.70;99.90
831;DHT22;397;50.564;7.272;2023-08-21T04:48:37;19.70;99.90
831;DHT22;397;50.564;7.272;2023-08-21T04:51:04;19.80;99.90
831;DHT22;397;50.564;7.272;2023-08-21T04:53:32;19.90;99.90
831;DHT22;397;50.564;7.272;2023-08-21T04:55:59;20.00;99.90
831;DHT22;397;50.564;7.272;2023-08-21T04:58:27;20.10;99.90
831;DHT22;397;50.564;7.272;2023-08-21T05:00:54;20.10;99.90
831;DHT22;397;50.564;7.272;2023-08-21T05:03:22;20.10;99.90
831;DHT22;397;50.564;7.272;2023-08-21T05:05:54;20.10;99.90
831;DHT22;397;50.564;7.272;2023-08-21T05:08:41;20.10;99.90
831;DHT22;397;50.564;7.272;2023-08-21T05:11:08;20.20;99.90
831;DHT22;397;50.564;7.272;2023-08-21T05:13:36;20.30;99.90
831;DHT22;397;50.564;7.272;2023-08-21T05:16:03;20.10;99.90
831;DHT22;397;50.564;7.272;2023-08-21T05:18:31;20.10;99.90
831;DHT22;397;50.564;7.272;2023-08-21T05:20:58;20.10;99.90
831;DHT22;397;50.564;7.272;2023-08-21T05:23:26;20.30;99.90
831;DHT22;397;50.564;7.272;2023-08-21T05:25:53;20.40;99.90
831;DHT22;397;50.564;7.272;2023-08-21T05:28:21;20.50;99.90
831;DHT22;397;50.564;7.272;2023-08-21T05:30:48;20.70;99.90
831;DHT22;397;50.564;7.272;2023-08-21T05:33:16;20.80;99.90
831;DHT22;397;50.564;7.272;2023-08-21T05:35:43;20.80;99.90
831;DHT22;397;50.564;7.272;2023-08-21T05:38:11;21.30;99.90
831;DHT22;397;50.564;7.272;2023-08-21T05:40:40;21.60;99.90
831;DHT22;397;50.564;7.272;2023-08-21T05:43:08;22.00;99.90
831;DHT22;397;50.564;7.272;2023-08-21T05:45:36;21.80;99.90
831;DHT22;397;50.564;7.272;2023-08-21T05:48:04;21.60;99.90
831;DHT22;397;50.564;7.272;2023-08-21T05:50:32;21.90;99.90
831;DHT22;397;50.564;7.272;2023-08-21T05:52:59;21.80;99.90
831;DHT22;397;50.564;7.272;2023-08-21T05:55:28;21.50;99.90
831;DHT22;397;50.564;7.272;2023-08-21T05:57:55;21.90;99.90
831;DHT22;397;50.564;7.272;2023-08-21T06:00:23;22.60;99.90
831;DHT22;397;50.564;7.272;2023-08-21T06:02:50;23.10;99.90
831;DHT22;397;50.564;7.272;2023-08-21T06:05:18;22.70;99.90
831;DHT22;397;50.564;7.272;2023-08-21T06:07:45;22.40;99.90
831;DHT22;397;50.564;7.272;2023-08-21T06:10:13;22.10;99.90
831;DHT22;397;50.564;7.272;2023-08-21T06:12:42;21.90;99.90
831;DHT22;397;50.564;7.272;2023-08-21T06:15:10;21.90;99.90
831;DHT22;397;50.564;7.272;2023-08-21T06:17:38;22.00;99.90
831;DHT22;397;50.564;7.272;2023-08-21T06:20:07;22.20;99.90
831;DHT22;397;50.564;7.272;2023-08-21T06:22:39;22.10;99.90
831;DHT22;397;50.564;7.272;2023-08-21T06:25:08;22.10;99.90
831;DHT22;397;50.564;7.272;2023-08-21T06:27:35;23.00;99.90
831;DHT22;397;50.564;7.272;2023-08-21T06:30:03;22.80;99.90
831;DHT22;397;50.564;7.272;2023-08-21T06:32:31;22.80;99.90
831;DHT22;397;50.564;7.272;2023-08-21T06:37:47;22.60;99.90
831;DHT22;397;50.564;7.272;2023-08-21T06:40:14;22.60;99.90
831;DHT22;397;50.564;7.272;2023-08-21T06:42:42;22.70;99.90
831;DHT22;397;50.564;7.272;2023-08-21T06:45:09;22.90;99.90
831;DHT22;397;50.564;7.272;2023-08-21T06:47:37;23.10;99.90
831;DHT22;397;50.564;7.272;2023-08-21T06:50:05;23.50;99.90
831;DHT22;397;50.564;7.272;2023-08-21T06:52:32;23.60;99.90
831;DHT22;397;50.564;7.272;2023-08-21T06:55:00;23.50;99.90
831;DHT22;397;50.564;7.272;2023-08-21T06:57:28;23.60;99.90
831;DHT22;397;50.564;7.272;2023-08-21T06:59:56;23.50;99.90
831;DHT22;397;50.564;7.272;2023-08-21T07:02:43;23.30;99.90
831;DHT22;397;50.564;7.272;2023-08-21T07:05:10;23.60;99.90
831;DHT22;397;50.564;7.272;2023-08-21T07:07:38;23.80;99.90
831;DHT22;397;50.564;7.272;2023-08-21T07:10:06;24.00;99.90
831;DHT22;397;50.564;7.272;2023-08-21T07:12:34;23.90;99.90
831;DHT22;397;50.564;7.272;2023-08-21T07:15:02;24.00;99.90
831;DHT22;397;50.564;7.272;2023-08-21T07:17:30;24.10;99.90
831;DHT22;397;50.564;7.272;2023-08-21T07:19:57;24.20;99.90
831;DHT22;397;50.564;7.272;2023-08-21T07:22:25;24.40;99.90
831;DHT22;397;50.564;7.272;2023-08-21T07:24:52;24.30;99.90
831;DHT22;397;50.564;7.272;2023-08-21T07:27:20;24.00;99.90
831;DHT22;397;50.564;7.272;2023-08-21T07:29:47;24.30;99.90
831;DHT22;397;50.564;7.272;2023-08-21T07:32:15;24.40;99.90
831;DHT22;397;50.564;7.272;2023-08-21T07:34:42;24.50;99.90
831;DHT22;397;50.564;7.272;2023-08-21T07:37:10;24.40;99.90
831;DHT22;397;50.564;7.272;2023-08-21T07:39:46;24.30;99.90
831;DHT22;397;50.564;7.272;2023-08-21T07:42:14;24.30;99.90
831;DHT22;397;50.564;7.272;2023-08-21T07:44:41;24.50;99.90
831;DHT22;397;50.564;7.272;2023-08-21T07:47:09;24.80;99.90
831;DHT22;397;50.564;7.272;2023-08-21T07:49:36;24.70;99.90
831;DHT22;397;50.564;7.272;2023-08-21T07:52:04;24.70;99.90
831;DHT22;397;50.564;7.272;2023-08-21T07:54:31;25.00;99.90
831;DHT22;397;50.564;7.272;2023-08-21T07:57:18;24.90;99.90
831;DHT22;397;50.564;7.272;2023-08-21T07:59:46;24.80;99.90
831;DHT22;397;50.564;7.272;2023-08-21T08:02:13;24.80;99.90
831;DHT22;397;50.564;7.272;2023-08-21T08:04:41;24.90;99.90
831;DHT22;397;50.564;7.272;2023-08-21T08:07:09;25.00;99.90
831;DHT22;397;50.564;7.272;2023-08-21T08:09:37;25.20;99.90
831;DHT22;397;50.564;7.272;2023-08-21T08:12:04;25.30;99.90
831;DHT22;397;50.564;7.272;2023-08-21T08:14:32;25.40;99.90
831;DHT22;397;50.564;7.272;2023-08-21T08:17:00;25.40;99.90
831;DHT22;397;50.564;7.272;2023-08-21T08:19:28;25.40;99.90
831;DHT22;397;50.564;7.272;2023-08-21T08:21:55;25.40;99.90
831;DHT22;397;50.564;7.272;2023-08-21T08:24:23;25.40;99.90
831;DHT22;397;50.564;7.272;2023-08-21T08:26:51;25.30;99.90
831;DHT22;397;50.564;7.272;2023-08-21T08:29:18;25.40;99.90
831;DHT22;397;50.564;7.272;2023-08-21T08:31:46;25.40;99.90
831;DHT22;397;50.564;7.272;2023-08-21T08:34:13;25.30;99.90
831;DHT22;397;50.564;7.272;2023-08-21T08:36:41;25.30;99.90
831;DHT22;397;50.564;7.272;2023-08-21T08:39:08;25.40;99.90
831;DHT22;397;50.564;7.272;2023-08-21T08:41:56;25.50;99.90
831;DHT22;397;50.564;7.272;2023-08-21T08:44:16;25.70;99.90
831;DHT22;397;50.564;7.272;2023-08-21T08:46:43;25.60;99.90
831;DHT22;397;50.564;7.272;2023-08-21T08:49:12;25.70;99.90
831;DHT22;397;50.564;7.272;2023-08-21T08:51:40;25.80;99.90
831;DHT22;397;50.564;7.272;2023-08-21T08:54:09;25.90;99.90
831;DHT22;397;50.564;7.272;2023-08-21T08:56:38;26.00;99.90
831;DHT22;397;50.564;7.272;2023-08-21T08:59:07;26.00;99.90
831;DHT22;397;50.564;7.272;2023-08-21T09:01:35;26.30;99.90
831;DHT22;397;50.564;7.272;2023-08-21T09:04:03;26.50;99.90
831;DHT22;397;50.564;7.272;2023-08-21T09:06:32;26.90;99.90
831;DHT22;397;50.564;7.272;2023-08-21T09:09:00;27.10;99.90
831;DHT22;397;50.564;7.272;2023-08-21T09:11:28;27.10;99.90
831;DHT22;397;50.564;7.272;2023-08-21T09:13:56;27.30;99.90
831;DHT22;397;50.564;7.272;2023-08-21T09:16:25;27.40;99.90
831;DHT22;397;50.564;7.272;2023-08-21T09:18:54;27.30;99.90
831;DHT22;397;50.564;7.272;2023-08-21T09:21:25;27.20;99.90
831;DHT22;397;50.564;7.272;2023-08-21T09:24:00;27.50;99.90
831;DHT22;397;50.564;7.272;2023-08-21T09:26:31;27.60;99.90
831;DHT22;397;50.564;7.272;2023-08-21T09:29:00;27.70;99.90
831;DHT22;397;50.564;7.272;2023-08-21T09:31:33;27.60;99.90
831;DHT22;397;50.564;7.272;2023-08-21T09:34:03;27.50;99.90
831;DHT22;397;50.564;7.272;2023-08-21T09:36:34;27.50;99.90
831;DHT22;397;50.564;7.272;2023-08-21T09:39:03;27.50;99.90
831;DHT22;397;50.564;7.272;2023-08-21T09:41:32;27.70;99.90
831;DHT22;397;50.564;7.272;2023-08-21T09:43:59;27.80;99.90
831;DHT22;397;50.564;7.272;2023-08-21T09:46:28;27.90;99.90
831;DHT22;397;50.564;7.272;2023-08-21T09:48:56;28.00;99.90
831;DHT22;397;50.564;7.272;2023-08-21T09:51:23;28.10;99.90
831;DHT22;397;50.564;7.272;2023-08-21T09:53:51;28.10;99.90
831;DHT22;397;50.564;7.272;2023-08-21T09:56:21;28.00;99.90
831;DHT22;397;50.564;7.272;2023-08-21T09:58:48;27.90;99.90
831;DHT22;397;50.564;7.272;2023-08-21T10:01:18;27.80;99.90
831;DHT22;397;50.564;7.272;2023-08-21T10:03:47;27.90;99.90
831;DHT22;397;50.564;7.272;2023-08-21T10:06:16;28.00;99.90
831;DHT22;397;50.564;7.272;2023-08-21T10:08:48;27.80;99.90
831;DHT22;397;50.564;7.272;2023-08-21T10:11:19;27.70;99.90
831;DHT22;397;50.564;7.272;2023-08-21T10:13:47;27.40;99.90
831;DHT22;397;50.564;7.272;2023-08-21T10:16:17;27.50;99.90
831;DHT22;397;50.564;7.272;2023-08-21T10:18:46;27.30;99.90
831;DHT22;397;50.564;7.272;2023-08-21T10:21:21;27.10;99.90
831;DHT22;397;50.564;7.272;2023-08-21T10:23:54;27.10;99.90
831;DHT22;397;50.564;7.272;2023-08-21T10:26:22;27.30;99.90
831;DHT22;397;50.564;7.272;2023-08-21T10:29:04;27.50;99.90
831;DHT22;397;50.564;7.272;2023-08-21T10:31:39;27.80;99.90
831;DHT22;397;50.564;7.272;2023-08-21T10:34:10;28.10;99.90
831;DHT22;397;50.564;7.272;2023-08-21T10:39:18;27.80;99.90
831;DHT22;397;50.564;7.272;2023-08-21T10:42:02;27.80;99.90
831;DHT22;397;50.564;7.272;2023-08-21T10:44:35;28.00;99.90
831;DHT22;397;50.564;7.272;2023-08-21T10:49:59;28.20;99.90
831;DHT22;397;50.564;7.272;2023-08-21T10:52:28;28.20;99.90
831;DHT22;397;50.564;7.272;2023-08-21T10:54:58;27.80;99.90
831;DHT22;397;50.564;7.272;2023-08-21T10:57:28;27.80;99.90
831;DHT22;397;50.564;7.272;2023-08-21T11:00:00;28.00;99.90
831;DHT22;397;50.564;7.272;2023-08-21T11:02:31;27.90;99.90
831;DHT22;397;50.564;7.272;2023-08-21T11:05:00;27.80;99.90
831;DHT22;397;50.564;7.272;2023-08-21T11:07:29;27.60;99.90
831;DHT22;397;50.564;7.272;2023-08-21T11:09:57;27.50;99.90
831;DHT22;397;50.564;7.272;2023-08-21T11:12:25;27.40;99.90
831;DHT22;397;50.564;7.272;2023-08-21T11:14:53;27.60;99.90
831;DHT22;397;50.564;7.272;2023-08-21T11:17:20;27.80;99.90
831;DHT22;397;50.564;7.272;2023-08-21T11:19:49;28.20;99.90
831;DHT22;397;50.564;7.272;2023-08-21T11:22:17;28.20;99.90
831;DHT22;397;50.564;7.272;2023-08-21T11:24:46;28.20;99.90
831;DHT22;397;50.564;7.272;2023-08-21T11:27:16;28.00;99.90
831;DHT22;397;50.564;7.272;2023-08-21T11:29:49;28.20;99.90
831;DHT22;397;50.564;7.272;2023-08-21T11:32:19;28.30;99.90
831;DHT22;397;50.564;7.272;2023-08-21T11:34:53;28.70;99.90
831;DHT22;397;50.564;7.272;2023-08-21T11:37:26;28.70;99.90
831;DHT22;397;50.564;7.272;2023-08-21T11:39:55;28.80;99.90
831;DHT22;397;50.564;7.272;2023-08-21T11:42:31;28.40;99.90
831;DHT22;397;50.564;7.272;2023-08-21T11:45:01;28.10;99.90
831;DHT22;397;50.564;7.272;2023-08-21T11:47:34;28.30;99.90
831;DHT22;397;50.564;7.272;2023-08-21T11:50:05;28.20;99.90
831;DHT22;397;50.564;7.272;2023-08-21T11:52:34;28.20;99.90
831;DHT22;397;50.564;7.272;2023-08-21T11:55:10;28.20;99.90
831;DHT22;397;50.564;7.272;2023-08-21T11:57:46;28.10;99.90
831;DHT22;397;50.564;7.272;2023-08-21T12:00:14;28.10;99.90
831;DHT22;397;50.564;7.272;2023-08-21T12:02:53;28.30;99.90
831;DHT22;397;50.564;7.272;2023-08-21T12:05:14;28.40;99.90
831;DHT22;397;50.564;7.272;2023-08-21T12:07:42;28.70;99.90
831;DHT22;397;50.564;7.272;2023-08-21T12:10:09;28.40;99.90
831;DHT22;397;50.564;7.272;2023-08-21T12:12:37;28.10;99.90
831;DHT22;397;50.564;7.272;2023-08-21T12:15:04;28.40;99.90
831;DHT22;397;50.564;7.272;2023-08-21T12:17:32;28.70;99.90
831;DHT22;397;50.564;7.272;2023-08-21T12:20:00;28.30;99.90
831;DHT22;397;50.564;7.272;2023-08-21T12:22:27;27.90;99.90
831;DHT22;397;50.564;7.272;2023-08-21T12:24:55;28.00;99.90
831;DHT22;397;50.564;7.272;2023-08-21T12:27:22;28.20;99.90
831;DHT22;397;50.564;7.272;2023-08-21T12:29:50;28.10;99.90
831;DHT22;397;50.564;7.272;2023-08-21T12:32:17;28.20;99.90
831;DHT22;397;50.564;7.272;2023-08-21T12:34:45;28.50;99.90
831;DHT22;397;50.564;7.272;2023-08-21T12:37:12;28.60;99.90
831;DHT22;397;50.564;7.272;2023-08-21T12:39:40;28.50;99.90
831;DHT22;397;50.564;7.272;2023-08-21T12:42:07;28.30;99.90
831;DHT22;397;50.564;7.272;2023-08-21T12:44:35;28.20;99.90
831;DHT22;397;50.564;7.272;2023-08-21T12:47:02;28.30;99.90
831;DHT22;397;50.564;7.272;2023-08-21T12:49:30;28.40;99.90
831;DHT22;397;50.564;7.272;2023-08-21T12:51:57;28.40;99.90
831;DHT22;397;50.564;7.272;2023-08-21T12:54:25;28.50;99.90
831;DHT22;397;50.564;7.272;2023-08-21T12:56:52;28.30;99.90
831;DHT22;397;50.564;7.272;2023-08-21T12:59:20;28.30;99.90
831;DHT22;397;50.564;7.272;2023-08-21T13:01:47;28.30;99.90
831;DHT22;397;50.564;7.272;2023-08-21T13:04:15;28.20;99.90
831;DHT22;397;50.564;7.272;2023-08-21T13:06:42;28.20;99.90
831;DHT22;397;50.564;7.272;2023-08-21T13:09:10;28.00;99.90
831;DHT22;397;50.564;7.272;2023-08-21T13:11:38;28.00;99.90
831;DHT22;397;50.564;7.272;2023-08-21T13:14:06;28.10;99.90
831;DHT22;397;50.564;7.272;2023-08-21T13:16:33;28.20;99.90
831;DHT22;397;50.564;7.272;2023-08-21T13:19:01;28.10;99.90
831;DHT22;397;50.564;7.272;2023-08-21T13:21:28;28.30;99.90
831;DHT22;397;50.564;7.272;2023-08-21T13:23:56;28.60;99.90
831;DHT22;397;50.564;7.272;2023-08-21T13:26:23;28.80;99.90
831;DHT22;397;50.564;7.272;2023-08-21T13:28:52;28.90;99.90
831;DHT22;397;50.564;7.272;2023-08-21T13:31:19;28.90;99.90
831;DHT22;397;50.564;7.272;2023-08-21T13:33:47;28.60;99.90
831;DHT22;397;50.564;7.272;2023-08-21T13:36:16;28.60;99.90
831;DHT22;397;50.564;7.272;2023-08-21T13:38:44;28.50;99.90
831;DHT22;397;50.564;7.272;2023-08-21T13:41:12;28.30;99.90
831;DHT22;397;50.564;7.272;2023-08-21T13:43:39;28.20;99.90
831;DHT22;397;50.564;7.272;2023-08-21T13:46:07;28.20;99.90
831;DHT22;397;50.564;7.272;2023-08-21T13:48:34;28.40;99.90
831;DHT22;397;50.564;7.272;2023-08-21T13:51:02;28.40;99.90
831;DHT22;397;50.564;7.272;2023-08-21T13:53:30;28.40;99.90
831;DHT22;397;50.564;7.272;2023-08-21T13:55:57;28.40;99.90
831;DHT22;397;50.564;7.272;2023-08-21T13:58:25;28.40;99.90
831;DHT22;397;50.564;7.272;2023-08-21T14:00:52;28.50;99.90
831;DHT22;397;50.564;7.272;2023-08-21T14:03:22;28.70;99.90
831;DHT22;397;50.564;7.272;2023-08-21T14:05:49;28.60;99.90
831;DHT22;397;50.564;7.272;2023-08-21T14:08:17;28.50;99.90
831;DHT22;397;50.564;7.272;2023-08-21T14:10:44;28.30;99.90
831;DHT22;397;50.564;7.272;2023-08-21T14:13:12;28.20;99.90
831;DHT22;397;50.564;7.272;2023-08-21T14:15:39;28.20;99.90
831;DHT22;397;50.564;7.272;2023-08-21T14:18:07;28.20;99.90
831;DHT22;397;50.564;7.272;2023-08-21T14:20:34;28.20;99.90
831;DHT22;397;50.564;7.272;2023-08-21T14:23:02;28.30;99.90
831;DHT22;397;50.564;7.272;2023-08-21T14:25:29;28.40;99.90
831;DHT22;397;50.564;7.272;2023-08-21T14:27:57;28.30;99.90
831;DHT22;397;50.564;7.272;2023-08-21T14:30:24;28.30;99.90
831;DHT22;397;50.564;7.272;2023-08-21T14:32:52;28.40;99.90
831;DHT22;397;50.564;7.272;2023-08-21T14:35:19;28.40;99.90
831;DHT22;397;50.564;7.272;2023-08-21T14:37:47;28.30;99.90
831;DHT22;397;50.564;7.272;2023-08-21T14:40:14;28.10;99.90
831;DHT22;397;50.564;7.272;2023-08-21T14:42:42;28.00;99.90
831;DHT22;397;50.564;7.272;2023-08-21T14:45:10;28.00;99.90
831;DHT22;397;50.564;7.272;2023-08-21T14:47:37;28.10;99.90
831;DHT22;397;50.564;7.272;2023-08-21T14:50:05;28.20;99.90
831;DHT22;397;50.564;7.272;2023-08-21T14:52:34;28.10;99.90
831;DHT22;397;50.564;7.272;2023-08-21T14:55:01;28.10;99.90
831;DHT22;397;50.564;7.272;2023-08-21T14:57:30;28.20;99.90
831;DHT22;397;50.564;7.272;2023-08-21T14:59:57;28.20;99.90
831;DHT22;397;50.564;7.272;2023-08-21T15:02:25;28.20;99.90
831;DHT22;397;50.564;7.272;2023-08-21T15:04:52;28.20;99.90
831;DHT22;397;50.564;7.272;2023-08-21T15:07:20;28.20;99.90
831;DHT22;397;50.564;7.272;2023-08-21T15:09:47;28.30;99.90
831;DHT22;397;50.564;7.272;2023-08-21T15:12:15;28.40;99.90
831;DHT22;397;50.564;7.272;2023-08-21T15:14:43;28.40;99.90
831;DHT22;397;50.564;7.272;2023-08-21T15:17:10;28.30;99.90
831;DHT22;397;50.564;7.272;2023-08-21T15:19:38;28.30;99.90
831;DHT22;397;50.564;7.272;2023-08-21T15:22:05;28.30;99.90
831;DHT22;397;50.564;7.272;2023-08-21T15:24:33;28.30;99.90
831;DHT22;397;50.564;7.272;2023-08-21T15:27:01;28.20;99.90
831;DHT22;397;50.564;7.272;2023-08-21T15:29:29;28.20;99.90
831;DHT22;397;50.564;7.272;2023-08-21T15:31:57;28.20;99.90
831;DHT22;397;50.564;7.272;2023-08-21T15:34:24;28.40;99.90
831;DHT22;397;50.564;7.272;2023-08-21T15:36:52;28.50;99.90
831;DHT22;397;50.564;7.272;2023-08-21T15:39:19;28.50;99.90
831;DHT22;397;50.564;7.272;2023-08-21T15:41:47;28.50;99.90
831;DHT22;397;50.564;7.272;2023-08-21T15:44:14;28.60;99.90
831;DHT22;397;50.564;7.272;2023-08-21T15:46:43;28.50;99.90
831;DHT22;397;50.564;7.272;2023-08-21T15:49:10;28.60;99.90
831;DHT22;397;50.564;7.272;2023-08-21T15:51:38;28.50;99.90
831;DHT22;397;50.564;7.272;2023-08-21T15:54:07;28.40;99.90
831;DHT22;397;50.564;7.272;2023-08-21T15:56:34;28.30;99.90
831;DHT22;397;50.564;7.272;2023-08-21T15:59:02;28.20;99.90
831;DHT22;397;50.564;7.272;2023-08-21T16:01:29;28.30;99.90
831;DHT22;397;50.564;7.272;2023-08-21T16:03:57;28.40;99.90
831;DHT22;397;50.564;7.272;2023-08-21T16:06:25;28.40;99.90
831;DHT22;397;50.564;7.272;2023-08-21T16:08:52;28.30;99.90
831;DHT22;397;50.564;7.272;2023-08-21T16:11:20;28.20;99.90
831;DHT22;397;50.564;7.272;2023-08-21T16:13:47;27.90;99.90
831;DHT22;397;50.564;7.272;2023-08-21T16:16:15;27.90;99.90
831;DHT22;397;50.564;7.272;2023-08-21T16:18:42;27.80;99.90
831;DHT22;397;50.564;7.272;2023-08-21T16:21:10;27.70;99.90
831;DHT22;397;50.564;7.272;2023-08-21T16:23:37;27.70;99.90
831;DHT22;397;50.564;7.272;2023-08-21T16:26:05;27.70;99.90
831;DHT22;397;50.564;7.272;2023-08-21T16:28:33;27.60;99.90
831;DHT22;397;50.564;7.272;2023-08-21T16:31:01;27.60;99.90
831;DHT22;397;50.564;7.272;2023-08-21T16:33:28;27.60;99.90
831;DHT22;397;50.564;7.272;2023-08-21T16:35:56;27.60;99.90
831;DHT22;397;50.564;7.272;2023-08-21T16:38:24;27.60;99.90
831;DHT22;397;50.564;7.272;2023-08-21T16:40:51;27.60;99.90
831;DHT22;397;50.564;7.272;2023-08-21T16:43:19;27.50;99.90
831;DHT22;397;50.564;7.272;2023-08-21T16:45:46;27.30;99.90
831;DHT22;397;50.564;7.272;2023-08-21T16:48:14;27.20;99.90
831;DHT22;397;50.564;7.272;2023-08-21T16:50:41;27.20;99.90